Time;durP1;ratioP1;P1;durP2;ratioP2;P2;SDS_P1;SDS_P2;PMS_P1;PMS_P2;Temp;Humidity;BMP_temperature;BMP_pressure;BME280_temperature;BME280_humidity;BME280_pressure;Samples;Min_cycle;Max_cycle;Signal;HPM_P1;HPM_P2
2022/03/27 00:00:31;;;;;;;21.92;16.58;;;12.60;48.20;;;;;;5042125;28;20080;-89
2022/03/27 00:02:57;;;;;;;20.45;16.73;;;12.60;48.30;;;;;;5033673;28;20041;-89
2022/03/27 00:05:23;;;;;;;19.48;15.63;;;12.60;48.40;;;;;;5028349;28;20036;-89
2022/03/27 00:07:49;;;;;;;19.85;15.88;;;12.50;48.30;;;;;;5039680;28;20041;-89
2022/03/27 00:10:15;;;;;;;18.33;16.35;;;12.50;48.50;;;;;;5033517;28;20052;-89
2022/03/27 00:12:41;;;;;;;19.48;16.17;;;12.50;48.60;;;;;;5031503;28;20056;-90
2022/03/27 00:15:09;;;;;;;17.27;15.43;;;12.40;48.50;;;;;;5026028;28;20416;-90
2022/03/27 00:17:35;;;;;;;21.45;16.60;;;12.40;48.60;;;;;;5034616;28;20124;-87
2022/03/27 00:20:04;;;;;;;20.58;16.80;;;12.40;48.80;;;;;;5026128;28;20398;-86
2022/03/27 00:22:30;;;;;;;17.92;14.95;;;12.40;48.90;;;;;;5025720;28;20041;-85
2022/03/27 00:24:57;;;;;;;20.70;17.65;;;12.30;48.80;;;;;;5035419;28;20041;-85
2022/03/27 00:27:23;;;;;;;19.65;16.30;;;12.30;48.90;;;;;;5020132;28;20092;-85
2022/03/27 00:29:49;;;;;;;20.02;15.90;;;12.30;49.00;;;;;;5041455;28;20385;-84
2022/03/27 00:32:15;;;;;;;18.73;16.45;;;12.20;48.90;;;;;;5020924;28;20485;-85
2022/03/27 00:34:41;;;;;;;20.60;16.92;;;12.20;49.10;;;;;;5023877;28;20038;-85
2022/03/27 00:37:07;;;;;;;16.90;15.10;;;12.20;49.20;;;;;;5023206;28;20103;-85
2022/03/27 00:39:33;;;;;;;18.00;16.02;;;12.20;49.30;;;;;;5025402;28;20060;-87
2022/03/27 00:41:59;;;;;;;17.50;15.27;;;12.20;49.40;;;;;;5025032;28;20072;-86
2022/03/27 00:44:25;;;;;;;17.85;15.82;;;12.20;49.40;;;;;;5027373;28;20037;-86
2022/03/27 00:46:51;;;;;;;19.25;16.38;;;12.10;49.30;;;;;;5001250;28;20057;-86
2022/03/27 00:49:17;;;;;;;18.88;16.75;;;12.10;49.40;;;;;;5027508;28;20029;-91
2022/03/27 00:51:42;;;;;;;19.52;15.48;;;12.10;49.50;;;;;;5030261;28;20036;-93
2022/03/27 00:54:08;;;;;;;19.67;16.15;;;12.00;49.40;;;;;;5031015;28;20234;-93
2022/03/27 00:56:34;;;;;;;19.48;16.77;;;12.00;49.60;;;;;;5027020;28;20025;-94
2022/03/27 00:59:00;;;;;;;18.45;16.50;;;12.00;49.70;;;;;;5031639;28;20033;-93
2022/03/27 01:01:35;;;;;;;20.05;17.98;;;12.00;49.80;;;;;;5027879;28;20108;-93
2022/03/27 01:04:05;;;;;;;21.90;16.75;;;11.90;49.80;;;;;;5039084;28;20459;-90
2022/03/27 01:06:34;;;;;;;19.30;16.35;;;11.90;49.90;;;;;;5025170;28;20057;-90
2022/03/27 01:11:47;;;;;;;20.70;17.30;;;11.80;49.90;;;;;;5021115;28;20033;-89
2022/03/27 01:14:18;;;;;;;21.52;17.58;;;11.70;49.90;;;;;;5041747;28;20041;-89
2022/03/27 01:16:47;;;;;;;20.42;17.02;;;11.70;50.00;;;;;;5040491;28;20030;-87
2022/03/27 01:19:15;;;;;;;20.80;18.20;;;11.70;50.10;;;;;;5021066;28;20460;-86
2022/03/27 01:21:46;;;;;;;19.63;17.52;;;11.60;50.00;;;;;;5023116;28;20057;-87
2022/03/27 01:24:14;;;;;;;21.73;17.38;;;11.60;50.20;;;;;;5032377;28;20463;-89
2022/03/27 01:26:40;;;;;;;20.15;16.67;;;11.60;50.20;;;;;;5018547;28;20025;-88
2022/03/27 01:29:07;;;;;;;19.88;17.65;;;11.50;50.10;;;;;;5019287;28;20045;-88
2022/03/27 01:31:34;;;;;;;20.27;17.77;;;11.50;50.20;;;;;;5039137;28;20029;-89
2022/03/27 01:34:01;;;;;;;21.35;17.48;;;11.50;50.30;;;;;;5026035;28;20492;-89
2022/03/27 01:36:34;;;;;;;20.33;16.65;;;11.50;50.40;;;;;;5020352;28;20063;-91
2022/03/27 01:39:02;;;;;;;21.58;17.63;;;11.40;50.30;;;;;;5026542;28;20440;-90
2022/03/27 01:41:30;;;;;;;21.60;17.25;;;11.40;50.40;;;;;;5020474;28;20109;-92
2022/03/27 01:43:56;;;;;;;21.00;18.02;;;11.30;50.30;;;;;;5029882;28;20124;-92
2022/03/27 01:46:22;;;;;;;24.80;18.92;;;11.40;50.60;;;;;;5024381;28;20029;-92
2022/03/27 01:48:48;;;;;;;23.00;17.73;;;11.30;50.50;;;;;;5029288;28;20049;-92
2022/03/27 01:51:14;;;;;;;21.23;16.10;;;11.30;50.50;;;;;;5040168;28;20033;-92
2022/03/27 01:53:40;;;;;;;20.98;17.23;;;11.30;50.70;;;;;;5021978;28;20029;-91
2022/03/27 01:56:07;;;;;;;21.63;18.65;;;11.30;50.80;;;;;;5017144;28;20108;-91
2022/03/27 01:58:40;;;;;;;22.77;18.13;;;11.20;51.30;;;;;;5024302;28;20037;-91
2022/03/27 02:01:07;;;;;;;20.40;16.88;;;11.20;50.80;;;;;;5027557;28;20075;-91
2022/03/27 02:03:33;;;;;;;24.80;18.38;;;11.20;50.90;;;;;;5028051;28;20041;-90
2022/03/27 02:05:59;;;;;;;23.58;16.80;;;11.10;50.80;;;;;;5029386;28;20504;-90
2022/03/27 02:08:25;;;;;;;25.27;19.20;;;11.10;51.50;;;;;;5042772;28;20045;-89
2022/03/27 02:10:51;;;;;;;21.00;17.58;;;11.10;51.00;;;;;;5042805;28;20432;-91
2022/03/27 02:13:22;;;;;;;20.50;18.02;;;11.00;51.20;;;;;;5025878;28;20033;-90
2022/03/27 02:15:49;;;;;;;19.02;16.30;;;11.00;51.00;;;;;;5028270;28;20466;-89
2022/03/27 02:18:16;;;;;;;20.92;17.75;;;11.00;51.10;;;;;;5043547;28;20092;-87
2022/03/27 02:20:44;;;;;;;22.23;17.55;;;11.00;51.20;;;;;;5019361;28;20026;-88
2022/03/27 02:23:13;;;;;;;19.52;17.40;;;10.90;51.10;;;;;;5031839;28;20075;-87
2022/03/27 02:25:39;;;;;;;21.88;18.02;;;10.90;51.20;;;;;;5045650;28;20048;-88
2022/03/27 02:28:07;;;;;;;21.83;17.95;;;10.90;51.30;;;;;;5030379;28;20038;-88
2022/03/27 02:30:33;;;;;;;27.75;18.70;;;10.90;51.40;;;;;;5028692;28;20488;-89
2022/03/27 02:32:59;;;;;;;22.00;18.75;;;10.90;51.50;;;;;;5045914;28;20033;-90
2022/03/27 02:35:25;;;;;;;21.08;18.15;;;10.80;51.40;;;;;;5029128;28;20080;-89
2022/03/27 02:37:51;;;;;;;22.13;18.77;;;10.80;51.50;;;;;;5047390;28;20037;-89
2022/03/27 02:40:17;;;;;;;24.05;18.80;;;10.80;51.50;;;;;;5030774;28;20389;-90
2022/03/27 02:42:43;;;;;;;22.25;18.02;;;10.70;51.40;;;;;;5032227;28;20041;-88
2022/03/27 02:45:09;;;;;;;22.75;18.65;;;10.80;51.70;;;;;;5031034;28;20033;-89
2022/03/27 02:47:36;;;;;;;21.30;17.60;;;10.70;51.60;;;;;;5030300;28;20512;-92
2022/03/27 02:50:04;;;;;;;20.50;17.63;;;10.70;51.70;;;;;;5031903;28;20057;-90
2022/03/27 02:52:31;;;;;;;24.70;18.85;;;10.70;51.80;;;;;;5052690;28;20038;-88
2022/03/27 02:54:57;;;;;;;26.05;20.13;;;10.70;51.90;;;;;;5067610;28;20200;-88
2022/03/27 02:57:23;;;;;;;24.33;18.90;;;10.60;51.80;;;;;;5053741;28;20034;-88
2022/03/27 02:59:52;;;;;;;23.83;18.88;;;10.60;51.90;;;;;;5067929;28;20046;-90
2022/03/27 03:02:19;;;;;;;25.15;18.55;;;10.60;52.00;;;;;;5051843;28;20033;-89
2022/03/27 03:04:45;;;;;;;25.00;18.75;;;10.60;52.00;;;;;;5057838;28;20080;-88
2022/03/27 03:07:11;;;;;;;23.02;19.15;;;10.60;52.00;;;;;;5052092;28;20089;-90
2022/03/27 03:09:37;;;;;;;25.08;20.13;;;10.60;52.10;;;;;;5050690;28;20396;-89
2022/03/27 03:12:04;;;;;;;26.60;20.20;;;10.60;52.20;;;;;;4997295;28;20472;-89
2022/03/27 03:14:30;;;;;;;26.92;20.60;;;10.50;52.10;;;;;;5017589;28;20030;-90
2022/03/27 03:16:56;;;;;;;22.83;19.40;;;10.50;52.20;;;;;;5035006;28;20492;-88
2022/03/27 03:19:23;;;;;;;25.98;20.42;;;10.50;52.30;;;;;;5034080;28;20029;-89
2022/03/27 03:21:49;;;;;;;24.25;20.42;;;10.50;52.30;;;;;;5034320;28;20235;-91
2022/03/27 03:24:14;;;;;;;25.90;19.95;;;10.50;52.40;;;;;;5027596;28;20030;-91
2022/03/27 03:26:40;;;;;;;24.27;19.65;;;10.50;52.40;;;;;;5021888;28;20384;-91
2022/03/27 03:29:06;;;;;;;25.10;19.90;;;10.40;52.30;;;;;;5029111;28;20116;-92
2022/03/27 03:31:32;;;;;;;25.83;20.70;;;10.40;52.40;;;;;;5030970;28;20021;-91
2022/03/27 03:33:58;;;;;;;24.85;20.25;;;10.40;52.40;;;;;;5031792;28;20212;-91
2022/03/27 03:36:24;;;;;;;25.70;21.27;;;10.40;52.50;;;;;;5046491;28;20064;-92
2022/03/27 03:38:51;;;;;;;23.95;19.70;;;10.40;52.60;;;;;;5046228;28;20049;-92
2022/03/27 03:41:17;;;;;;;26.95;20.92;;;10.40;52.60;;;;;;5030271;28;20025;-92
2022/03/27 03:43:43;;;;;;;25.33;20.90;;;10.40;52.70;;;;;;5026957;28;20026;-91
2022/03/27 03:46:10;;;;;;;24.10;19.13;;;10.40;52.80;;;;;;5024096;28;20029;-93
2022/03/27 03:48:36;;;;;;;27.05;20.80;;;10.30;52.60;;;;;;5032607;28;20084;-93
2022/03/27 03:51:02;;;;;;;27.08;21.88;;;10.30;52.70;;;;;;5030895;28;20040;-92
2022/03/27 03:53:28;;;;;;;27.27;20.63;;;10.30;53.30;;;;;;5033297;28;20038;-93
2022/03/27 03:55:54;;;;;;;27.35;21.55;;;10.30;52.80;;;;;;5007554;28;20158;-90
2022/03/27 03:58:20;;;;;;;26.45;21.38;;;10.30;52.90;;;;;;5041602;28;20026;-89
2022/03/27 04:00:47;;;;;;;25.15;20.38;;;10.30;52.90;;;;;;5031556;28;20098;-90
2022/03/27 04:03:13;;;;;;;26.35;21.40;;;10.30;53.00;;;;;;5046812;28;20041;-90
2022/03/27 04:05:39;;;;;;;24.13;20.40;;;10.30;53.10;;;;;;5031569;28;20034;-90
2022/03/27 04:08:05;;;;;;;25.80;21.63;;;10.20;52.90;;;;;;5032408;28;20408;-90
2022/03/27 04:10:31;;;;;;;25.13;21.65;;;10.20;52.90;;;;;;5032074;28;20425;-90
2022/03/27 04:12:57;;;;;;;26.05;21.02;;;10.30;53.20;;;;;;5031353;28;20116;-90
2022/03/27 04:15:22;;;;;;;26.05;21.05;;;10.20;53.10;;;;;;5022969;28;20040;-89
2022/03/27 04:17:50;;;;;;;29.02;21.63;;;10.20;53.10;;;;;;5028965;28;20048;-91
2022/03/27 04:20:16;;;;;;;27.63;21.33;;;10.20;53.20;;;;;;5031195;28;20025;-90
2022/03/27 04:22:44;;;;;;;25.05;21.58;;;10.20;53.30;;;;;;5030362;28;20056;-90
2022/03/27 04:25:11;;;;;;;26.42;20.98;;;10.20;53.30;;;;;;5029956;28;20469;-91
2022/03/27 04:27:38;;;;;;;26.88;20.50;;;10.20;53.30;;;;;;5029511;28;20041;-90
2022/03/27 04:30:09;;;;;;;26.05;21.42;;;10.20;53.40;;;;;;5028424;28;20056;-89
2022/03/27 04:32:36;;;;;;;27.15;22.60;;;10.20;53.40;;;;;;5028411;28;20034;-90
2022/03/27 04:35:06;;;;;;;28.15;21.33;;;10.20;53.50;;;;;;5030390;28;20095;-90
2022/03/27 04:37:32;;;;;;;28.25;20.75;;;10.20;53.50;;;;;;5021718;28;20084;-91
2022/03/27 04:40:02;;;;;;;25.83;22.38;;;10.20;53.50;;;;;;5040856;28;20113;-90
2022/03/27 04:42:29;;;;;;;27.02;22.35;;;10.20;53.60;;;;;;5040746;28;20029;-91
2022/03/27 04:44:55;;;;;;;29.55;20.90;;;10.20;53.70;;;;;;5044897;28;20143;-92
2022/03/27 04:47:21;;;;;;;28.20;21.33;;;10.20;53.70;;;;;;5027086;28;20063;-92
2022/03/27 04:49:48;;;;;;;25.50;21.40;;;10.20;53.80;;;;;;5042676;28;20554;-91
2022/03/27 04:52:13;;;;;;;25.38;20.90;;;10.20;53.80;;;;;;5022510;28;20088;-90
2022/03/27 04:54:39;;;;;;;24.67;19.95;;;10.20;54.40;;;;;;5011113;28;20034;-93
2022/03/27 04:57:07;;;;;;;28.20;21.63;;;10.20;53.90;;;;;;5028208;28;20053;-93
2022/03/27 04:59:33;;;;;;;26.55;20.75;;;10.10;53.80;;;;;;5026740;28;20078;-92
2022/03/27 05:01:59;;;;;;;25.25;20.48;;;10.10;53.80;;;;;;5027618;28;20487;-93
2022/03/27 05:04:28;;;;;;;22.92;19.25;;;10.10;53.90;;;;;;5033555;28;20038;-91
2022/03/27 05:06:54;;;;;;;24.67;20.63;;;10.10;54.00;;;;;;5018092;28;20116;-92
2022/03/27 05:09:20;;;;;;;25.40;20.08;;;10.10;54.00;;;;;;5027624;28;20139;-92
2022/03/27 05:11:49;;;;;;;25.85;20.58;;;10.10;54.10;;;;;;5018288;28;20053;-91
2022/03/27 05:14:15;;;;;;;24.45;20.20;;;10.10;54.20;;;;;;5027804;28;20045;-91
2022/03/27 05:16:41;;;;;;;23.75;20.45;;;10.10;54.20;;;;;;5048688;28;20033;-91
2022/03/27 05:19:07;;;;;;;25.83;19.90;;;10.10;54.20;;;;;;5017409;28;20022;-90
2022/03/27 05:21:34;;;;;;;23.27;20.02;;;10.10;54.30;;;;;;5024946;28;20120;-90
2022/03/27 05:24:01;;;;;;;24.73;21.13;;;10.10;54.30;;;;;;5027101;28;20044;-91
2022/03/27 05:26:27;;;;;;;27.02;19.77;;;10.10;54.30;;;;;;5031431;28;20018;-92
2022/03/27 05:28:54;;;;;;;26.15;19.83;;;10.10;54.40;;;;;;5016666;28;20041;-88
2022/03/27 05:31:21;;;;;;;22.90;20.08;;;10.10;54.40;;;;;;5009230;28;20459;-89
2022/03/27 05:33:47;;;;;;;24.80;19.50;;;10.10;54.40;;;;;;5025496;28;20033;-89
2022/03/27 05:36:13;;;;;;;23.35;19.33;;;10.00;54.30;;;;;;5020644;28;20038;-87
2022/03/27 05:38:42;;;;;;;21.92;19.13;;;10.00;54.30;;;;;;5019971;28;20091;-93
2022/03/27 05:41:09;;;;;;;25.55;20.25;;;10.00;54.40;;;;;;5021884;28;20436;-92
2022/03/27 05:43:36;;;;;;;22.75;18.70;;;10.00;54.40;;;;;;5024968;28;20129;-93
2022/03/27 05:46:02;;;;;;;24.25;18.83;;;10.00;54.50;;;;;;5038504;28;20532;-92
2022/03/27 05:48:28;;;;;;;23.45;17.35;;;10.00;54.50;;;;;;5036224;28;20046;-91
2022/03/27 05:50:54;;;;;;;22.67;18.67;;;10.00;55.20;;;;;;5024942;28;20033;-92
2022/03/27 05:53:20;;;;;;;22.10;18.25;;;9.90;54.50;;;;;;5023269;28;20029;-93
2022/03/27 05:55:47;;;;;;;26.42;20.02;;;9.90;54.50;;;;;;5032446;28;20045;-90
2022/03/27 05:58:14;;;;;;;24.27;18.73;;;9.90;54.60;;;;;;5021930;28;20041;-91
2022/03/27 06:00:41;;;;;;;22.42;18.38;;;9.90;54.60;;;;;;5036376;28;20021;-89
2022/03/27 06:03:06;;;;;;;25.05;20.00;;;9.90;54.60;;;;;;5025059;28;20120;-88
2022/03/27 06:05:33;;;;;;;24.95;18.67;;;9.90;54.70;;;;;;5022211;28;20275;-90
2022/03/27 06:07:59;;;;;;;23.65;18.55;;;9.90;54.70;;;;;;5015714;28;20072;-89
2022/03/27 06:10:33;;;;;;;24.23;18.40;;;9.90;54.70;;;;;;5016842;28;20064;-89
2022/03/27 06:13:01;;;;;;;24.58;18.63;;;9.90;54.80;;;;;;5017262;28;20489;-90
2022/03/27 06:15:28;;;;;;;24.05;17.88;;;9.90;54.80;;;;;;5032791;28;20068;-89
2022/03/27 06:17:55;;;;;;;20.85;17.75;;;9.90;54.80;;;;;;5018205;28;20850;-91
2022/03/27 06:20:23;;;;;;;26.10;18.20;;;9.90;54.80;;;;;;5015239;28;20397;-92
2022/03/27 06:22:50;;;;;;;21.15;17.27;;;9.90;54.80;;;;;;5020111;28;20025;-89
2022/03/27 06:25:18;;;;;;;22.60;18.30;;;9.90;54.80;;;;;;5021617;28;20112;-91
2022/03/27 06:27:45;;;;;;;21.88;17.15;;;9.90;54.80;;;;;;5024028;28;20042;-89
2022/03/27 06:30:15;;;;;;;21.42;17.00;;;9.90;54.90;;;;;;5003618;28;20816;-89
2022/03/27 06:32:42;;;;;;;22.20;17.40;;;9.90;54.80;;;;;;5022024;28;20075;-91
2022/03/27 06:35:10;;;;;;;24.65;18.70;;;9.90;54.80;;;;;;5024717;28;20520;-93
2022/03/27 06:37:37;;;;;;;25.65;18.70;;;9.90;54.80;;;;;;5022076;28;20033;-91
2022/03/27 06:40:05;;;;;;;23.13;18.83;;;10.00;55.00;;;;;;5020344;28;20033;-92
2022/03/27 06:42:31;;;;;;;21.05;17.40;;;10.00;55.00;;;;;;5037976;28;20094;-92
2022/03/27 06:44:57;;;;;;;21.23;17.70;;;10.00;54.90;;;;;;5015872;28;20091;-92
2022/03/27 06:47:26;;;;;;;22.45;19.08;;;10.00;54.90;;;;;;5032467;28;20057;-93
2022/03/27 06:49:57;;;;;;;22.92;18.63;;;10.00;54.90;;;;;;5019711;28;20477;-87
2022/03/27 06:52:23;;;;;;;24.05;19.83;;;10.10;55.00;;;;;;5014361;28;20053;-88
2022/03/27 06:54:50;;;;;;;28.13;22.50;;;10.10;55.00;;;;;;5034584;28;20060;-87
2022/03/27 06:57:16;;;;;;;26.27;21.45;;;10.10;54.90;;;;;;5021611;28;20033;-90
2022/03/27 07:05:13;;;;;;;29.95;22.95;;;10.30;55.20;;;;;;5021264;28;20017;-78
2022/03/27 07:07:38;;;;;;;27.25;22.55;;;10.50;55.20;;;;;;5024036;28;20048;-79
2022/03/27 07:10:05;;;;;;;28.73;23.15;;;10.50;55.00;;;;;;5022658;28;20022;-80
2022/03/27 07:12:30;;;;;;;30.55;22.48;;;10.60;54.90;;;;;;5024786;28;20036;-79
2022/03/27 07:14:57;;;;;;;31.90;23.95;;;10.70;54.80;;;;;;5024757;28;20030;-82
2022/03/27 07:17:23;;;;;;;31.60;23.33;;;10.80;54.80;;;;;;5024731;28;20037;-79
2022/03/27 07:19:49;;;;;;;29.98;23.85;;;10.90;55.40;;;;;;5022657;28;20444;-79
2022/03/27 07:22:16;;;;;;;28.40;23.15;;;10.90;54.70;;;;;;5009901;28;20033;-79
2022/03/27 07:24:42;;;;;;;27.02;21.95;;;11.00;54.70;;;;;;5027488;28;20092;-80
2022/03/27 07:27:08;;;;;;;30.58;26.08;;;11.00;54.50;;;;;;5026163;28;20135;-79
2022/03/27 07:29:38;;;;;;;33.17;24.17;;;11.00;55.00;;;;;;5019572;28;20096;-79
2022/03/27 07:32:05;;;;;;;31.98;23.48;;;11.10;54.60;;;;;;5008064;28;20025;-80
2022/03/27 07:34:33;;;;;;;28.08;22.30;;;11.10;54.40;;;;;;5035299;28;20058;-79
2022/03/27 07:36:59;;;;;;;28.60;22.55;;;11.20;54.50;;;;;;5025787;28;20053;-80
2022/03/27 07:39:25;;;;;;;30.80;23.50;;;11.30;54.50;;;;;;5023379;28;20452;-80
2022/03/27 07:41:51;;;;;;;32.05;24.20;;;11.30;54.30;;;;;;5023927;28;20128;-81
2022/03/27 07:44:17;;;;;;;28.40;23.17;;;11.40;54.20;;;;;;5008659;28;20036;-78
2022/03/27 07:46:44;;;;;;;32.17;24.48;;;11.50;54.20;;;;;;5011240;28;20069;-80
2022/03/27 07:49:10;;;;;;;32.60;24.15;;;11.50;54.00;;;;;;5020745;28;20060;-80
2022/03/27 07:51:37;;;;;;;30.27;23.33;;;11.70;54.10;;;;;;5025606;28;21388;-79
2022/03/27 07:54:03;;;;;;;30.67;23.48;;;11.70;54.00;;;;;;5025095;28;20437;-78
2022/03/27 07:56:31;;;;;;;28.33;22.70;;;11.80;53.90;;;;;;5023541;28;20079;-79
2022/03/27 07:58:57;;;;;;;26.80;22.70;;;11.90;53.90;;;;;;5019222;28;20508;-79
2022/03/27 08:01:24;;;;;;;28.02;22.50;;;11.90;53.80;;;;;;5025168;28;20037;-80
2022/03/27 08:03:51;;;;;;;28.63;23.35;;;11.90;54.30;;;;;;5024689;28;20437;-80
2022/03/27 08:06:17;;;;;;;28.40;22.48;;;11.90;53.80;;;;;;5040876;28;20129;-77
2022/03/27 08:08:43;;;;;;;27.25;21.83;;;11.90;53.90;;;;;;5024675;28;20131;-77
2022/03/27 08:11:09;;;;;;;29.08;23.55;;;11.90;54.20;;;;;;5024159;28;20540;-77
2022/03/27 08:13:35;;;;;;;29.17;23.10;;;11.90;53.80;;;;;;5025466;28;20029;-76
2022/03/27 08:16:01;;;;;;;27.70;21.52;;;12.00;54.00;;;;;;5023883;28;20031;-77
2022/03/27 08:18:27;;;;;;;28.58;20.67;;;11.90;53.90;;;;;;5024730;28;20033;-77
2022/03/27 08:20:53;;;;;;;26.65;21.95;;;11.90;53.90;;;;;;5024955;28;20037;-79
2022/03/27 08:23:19;;;;;;;28.63;22.25;;;11.90;53.90;;;;;;5025526;28;20087;-77
2022/03/27 08:28:29;;;;;;;23.95;20.25;;;11.90;54.00;;;;;;5021669;28;20041;-88
2022/03/27 08:30:55;;;;;;;26.42;19.83;;;12.00;54.10;;;;;;5031786;28;20205;-86
2022/03/27 08:33:21;;;;;;;31.13;19.77;;;12.00;54.20;;;;;;5017680;28;20041;-85
2022/03/27 08:35:47;;;;;;;25.45;20.13;;;11.90;54.00;;;;;;5013635;28;20492;-86
2022/03/27 08:38:15;;;;;;;22.95;19.35;;;11.90;54.10;;;;;;5025406;28;20042;-84
2022/03/27 08:40:43;;;;;;;23.45;19.05;;;11.90;54.20;;;;;;5024825;28;20356;-84
2022/03/27 08:43:10;;;;;;;23.10;19.52;;;11.90;54.20;;;;;;5024142;28;20033;-83
2022/03/27 08:45:37;;;;;;;25.42;18.48;;;11.90;54.30;;;;;;5017117;28;20725;-84
2022/03/27 08:48:04;;;;;;;24.10;19.00;;;11.90;54.30;;;;;;5019783;28;20045;-84
2022/03/27 08:50:52;;;;;;;24.38;18.58;;;11.80;54.30;;;;;;5037978;28;20036;-83
2022/03/27 08:53:29;;;;;;;22.35;17.90;;;11.80;54.30;;;;;;5018763;28;20045;-82
2022/03/27 08:56:02;;;;;;;22.23;17.08;;;11.80;54.40;;;;;;5017928;28;20026;-83
2022/03/27 08:58:35;;;;;;;;;;;11.90;54.70;;;;;;5025703;28;20029;-82
2022/03/27 09:01:02;;;;;;;23.77;17.92;;;11.90;54.70;;;;;;5024691;28;19909;-82
2022/03/27 09:03:28;;;;;;;21.85;16.33;;;11.90;54.50;;;;;;5040649;28;20715;-82
2022/03/27 09:05:54;;;;;;;22.65;18.33;;;11.80;54.40;;;;;;5022989;28;20025;-89
2022/03/27 09:08:19;;;;;;;21.38;16.30;;;11.80;54.60;;;;;;5025722;28;20042;-87
2022/03/27 09:10:45;;;;;;;19.83;15.63;;;11.90;54.90;;;;;;5026503;28;20132;-88
2022/03/27 09:13:14;;;;;;;20.75;15.00;;;11.90;55.00;;;;;;5023346;28;20487;-89
2022/03/27 09:15:42;;;;;;;18.23;15.88;;;11.90;55.00;;;;;;5025907;28;20214;-91
2022/03/27 09:18:10;;;;;;;19.48;16.00;;;11.90;55.00;;;;;;5025420;28;20037;-89
2022/03/27 09:20:43;;;;;;;17.75;14.93;;;12.00;55.20;;;;;;5024279;28;20095;-90
2022/03/27 09:23:12;;;;;;;21.88;15.80;;;12.00;55.30;;;;;;5023972;28;20029;-90
2022/03/27 09:25:48;;;;;;;20.73;16.70;;;12.00;55.30;;;;;;5022747;28;20022;-90
2022/03/27 09:28:33;;;;;;;20.95;15.63;;;12.10;55.60;;;;;;5022328;28;20088;-89
2022/03/27 09:31:26;;;;;;;18.73;15.00;;;12.10;55.60;;;;;;5018749;28;20489;-89
2022/03/27 09:34:00;;;;;;;21.08;16.20;;;12.20;56.30;;;;;;5014119;28;20037;-90
2022/03/27 09:36:39;;;;;;;19.10;15.60;;;12.20;55.70;;;;;;5020967;28;20033;-89
2022/03/27 09:39:17;;;;;;;19.33;15.63;;;12.20;55.70;;;;;;5020007;28;20068;-89
2022/03/27 09:41:59;;;;;;;18.23;15.93;;;12.30;55.90;;;;;;5018946;28;20018;-88
2022/03/27 09:44:36;;;;;;;18.52;15.27;;;12.30;55.80;;;;;;5014084;28;20409;-88
2022/03/27 09:47:10;;;;;;;19.25;15.43;;;12.30;55.80;;;;;;5010311;28;20037;-89
2022/03/27 09:49:38;;;;;;;20.48;15.50;;;12.40;56.00;;;;;;5017695;28;20707;-88
2022/03/27 09:52:09;;;;;;;21.75;16.55;;;12.40;56.00;;;;;;5020150;28;20040;-88
2022/03/27 09:54:44;;;;;;;18.77;15.57;;;12.50;56.20;;;;;;5007512;28;20041;-89
2022/03/27 09:57:25;;;;;;;19.67;14.50;;;12.60;56.50;;;;;;5017846;28;20037;-88
2022/03/27 09:59:53;;;;;;;17.00;13.50;;;12.60;56.40;;;;;;5019791;28;20073;-89
2022/03/27 10:02:24;;;;;;;19.38;14.00;;;12.70;56.50;;;;;;5030764;28;20547;-88
2022/03/27 10:05:06;;;;;;;19.27;14.43;;;12.70;56.40;;;;;;5019284;28;20421;-87
2022/03/27 10:07:43;;;;;;;21.77;14.98;;;12.80;56.60;;;;;;5006770;28;20102;-88
2022/03/27 10:10:12;;;;;;;17.15;13.60;;;12.80;56.60;;;;;;5018001;28;20068;-83
2022/03/27 10:12:39;;;;;;;19.00;14.48;;;12.90;56.60;;;;;;5014940;28;20071;-87
2022/03/27 10:15:09;;;;;;;16.10;13.50;;;13.00;56.80;;;;;;5019940;28;20021;-85
2022/03/27 10:17:37;;;;;;;20.95;14.65;;;13.00;56.70;;;;;;5062293;28;20028;-86
2022/03/27 10:20:09;;;;;;;17.45;14.50;;;13.10;56.80;;;;;;5046831;28;20034;-81
2022/03/27 10:23:01;;;;;;;19.48;14.35;;;13.20;57.00;;;;;;5043591;28;20018;-82
2022/03/27 10:25:41;;;;;;;19.48;14.55;;;13.20;57.00;;;;;;5044934;28;20041;-80
2022/03/27 10:28:07;;;;;;;18.17;15.35;;;13.30;57.10;;;;;;5039126;28;20055;-77
2022/03/27 10:30:34;;;;;;;17.27;14.98;;;13.30;57.00;;;;;;5040019;28;20021;-78
2022/03/27 10:33:01;;;;;;;19.92;14.93;;;13.40;57.10;;;;;;5034338;28;20056;-81
2022/03/27 10:35:42;;;;;;;19.08;16.13;;;13.50;57.30;;;;;;5020712;28;20299;-82
2022/03/27 10:38:46;;;;;;;15.57;12.80;;;13.60;57.50;;;;;;5023843;28;20035;-81
2022/03/27 10:41:27;;;;;;;9.07;7.25;;;13.70;57.60;;;;;;5011565;28;20129;-82
2022/03/27 10:44:31;;;;;;;8.27;6.28;;;13.90;57.70;;;;;;5019939;28;20136;-82
2022/03/27 10:47:17;;;;;;;7.50;5.88;;;14.00;57.80;;;;;;5026411;28;20049;-81
2022/03/27 10:50:08;;;;;;;8.45;6.20;;;14.10;57.70;;;;;;5046231;28;20496;-86
2022/03/27 10:52:56;;;;;;;6.68;5.85;;;14.20;57.80;;;;;;5017654;28;20100;-81
2022/03/27 10:55:36;;;;;;;7.40;6.38;;;14.20;57.70;;;;;;5019005;28;20032;-79
2022/03/27 10:58:24;;;;;;;7.47;6.35;;;14.20;57.60;;;;;;5029715;28;20068;-78
2022/03/27 11:00:50;;;;;;;13.45;7.65;;;14.20;57.70;;;;;;5029760;28;20041;-78
2022/03/27 11:03:51;;;;;;;7.05;5.65;;;14.30;57.80;;;;;;5029545;28;20021;-77
2022/03/27 11:06:28;;;;;;;6.70;6.03;;;14.30;57.80;;;;;;4996100;28;20043;-78
2022/03/27 11:08:59;;;;;;;7.32;6.47;;;14.20;57.60;;;;;;5022381;28;20168;-81
2022/03/27 11:11:37;;;;;;;9.60;7.13;;;14.20;57.60;;;;;;5022709;28;20034;-81
2022/03/27 11:14:07;;;;;;;9.70;7.60;;;14.20;57.70;;;;;;5022910;28;20388;-79
2022/03/27 11:16:36;;;;;;;8.85;7.05;;;14.20;57.70;;;;;;5036230;28;20504;-81
2022/03/27 11:19:04;;;;;;;8.80;6.43;;;14.20;57.80;;;;;;5021502;28;20124;-79
2022/03/27 11:21:29;;;;;;;8.70;7.40;;;14.20;57.90;;;;;;5041554;28;20021;-78
2022/03/27 11:24:15;;;;;;;9.00;7.72;;;14.20;57.90;;;;;;5013430;28;20026;-83
2022/03/27 11:26:42;;;;;;;8.80;7.53;;;14.20;57.90;;;;;;5033951;28;20030;-80
2022/03/27 11:29:11;;;;;;;9.52;7.30;;;14.20;57.90;;;;;;5032845;28;20039;-80
2022/03/27 11:31:38;;;;;;;9.65;7.88;;;14.20;57.90;;;;;;5049421;28;20036;-85
2022/03/27 11:34:16;;;;;;;10.38;7.32;;;14.30;58.10;;;;;;5032843;28;20033;-79
2022/03/27 11:36:47;;;;;;;9.07;7.93;;;14.30;58.10;;;;;;5026100;28;20045;-82
2022/03/27 11:39:35;;;;;;;9.10;7.20;;;14.30;58.00;;;;;;5023957;28;20100;-82
2022/03/27 11:42:40;;;;;;;10.32;8.88;;;14.30;58.00;;;;;;5026015;28;20057;-81
2022/03/27 11:45:10;;;;;;;9.00;8.10;;;14.40;58.10;;;;;;4990075;28;20516;-81
2022/03/27 11:47:53;;;;;;;10.45;8.27;;;14.40;58.00;;;;;;4981557;28;20058;-82
2022/03/27 11:50:22;;;;;;;10.80;8.00;;;14.40;57.90;;;;;;5003828;28;20046;-83
2022/03/27 11:52:48;;;;;;;11.73;9.05;;;14.50;58.00;;;;;;5038009;28;20033;-85
2022/03/27 11:55:14;;;;;;;9.30;8.18;;;14.50;57.80;;;;;;5014366;28;20022;-85
2022/03/27 11:57:57;;;;;;;11.52;7.95;;;14.60;58.00;;;;;;5037489;28;20462;-84
2022/03/27 12:00:35;;;;;;;9.02;7.80;;;14.60;57.90;;;;;;5015736;28;20041;-92
2022/03/27 12:03:22;;;;;;;8.13;7.03;;;14.70;58.00;;;;;;5010978;28;20564;-81
2022/03/27 12:05:49;;;;;;;9.68;7.95;;;14.70;57.80;;;;;;5019137;28;20037;-82
2022/03/27 12:08:18;;;;;;;10.50;8.23;;;14.80;57.80;;;;;;5025449;28;20042;-82
2022/03/27 12:10:47;;;;;;;9.65;8.57;;;14.80;57.70;;;;;;5031386;28;20053;-82
2022/03/27 12:13:14;;;;;;;8.52;7.05;;;14.90;57.70;;;;;;5012079;28;20037;-79
2022/03/27 12:15:41;;;;;;;10.18;7.55;;;14.90;58.20;;;;;;5021289;28;20079;-81
2022/03/27 12:18:07;;;;;;;10.63;7.53;;;14.90;57.40;;;;;;5039380;28;20096;-80
2022/03/27 12:20:48;;;;;;;10.00;7.90;;;14.90;57.20;;;;;;5026526;28;20075;-79
2022/03/27 12:23:38;;;;;;;10.15;7.60;;;15.00;57.30;;;;;;5032467;28;20033;-78
2022/03/27 12:29:39;;;;;;;9.30;7.70;;;15.00;57.10;;;;;;5016916;28;20042;-78
2022/03/27 12:32:16;;;;;;;12.60;7.40;;;15.10;56.90;;;;;;5015450;28;20025;-79
2022/03/27 12:34:44;;;;;;;10.70;8.70;;;15.20;56.90;;;;;;5017294;28;20124;-79
2022/03/27 12:37:15;;;;;;;9.73;8.73;;;15.20;56.80;;;;;;5023441;28;20025;-79
2022/03/27 12:40:02;;;;;;;10.30;8.07;;;15.20;56.70;;;;;;5034423;28;20025;-81
2022/03/27 12:42:47;;;;;;;12.35;10.00;;;15.30;56.60;;;;;;5034650;28;20448;-80
2022/03/27 12:45:22;;;;;;;12.93;9.20;;;15.40;56.70;;;;;;5016810;28;20102;-82
2022/03/27 12:47:49;;;;;;;12.30;9.40;;;15.40;56.60;;;;;;5028365;28;20119;-81
2022/03/27 12:50:27;;;;;;;14.13;10.55;;;15.40;56.50;;;;;;5023410;28;20034;-79
2022/03/27 12:52:56;;;;;;;12.55;9.57;;;15.50;56.60;;;;;;5017334;28;20037;-82
2022/03/27 12:55:25;;;;;;;12.23;10.23;;;15.60;56.60;;;;;;5030312;28;20033;-81